^^
Grace C. Lehan Memorial Weather Station Historical Data
Daily Summary for July 7, 2022 Units:  Both    English   Metric
Daily Weekly Monthly Yearly
  High: Low: Average:
Temperature: 71.2 °F /  21.8 °C 61.7 °F /  16.5 °C 66 °F /  18.9 °C
Dew Point: 63.5 °F /  17.5 °C 60.8 °F /  16 °C 62 °F /  16.7 °C
Humidity: 97% 74% 88%
Wind Speed: 3.6mph /  5.8km/h - 0.3mph /  0.5km/h
Wind Gust: 10mph /  16.1km/h - -
Wind- - ESE
Pressure: 30.04 in /  1017.2 hPa 29.94 in /  1013.8 hPa -
Precipitation: 0.00 in /  0 mm    
 
 
Tabular Data for July 7, 2022
Time Temperature Dew Point Pressure Wind Wind Speed Wind Gust Humidity Rainfall Rate (Hourly) solar
00:00 63.8 °F /  17.7 °C 62.9 °F /  17.2 °C 30.04in /  1017.2hPa Calm   5mph /  8km/h 97% 0.01in /  0.25mm 0 W/m2
00:09 63.7 °F /  17.6 °C 62.9 °F /  17.2 °C 30.04in /  1017.2hPa ENE 0.4mph /  0.6km/h 5mph /  8km/h 97% 0.01in /  0.25mm 0 W/m2
00:14 63.7 °F /  17.6 °C 62.8 °F /  17.1 °C 30.04in /  1017.2hPa Calm   5mph /  8km/h 97% 0.01in /  0.25mm 0 W/m2
00:19 63.6 °F /  17.6 °C 62.7 °F /  17.1 °C 30.04in /  1017.2hPa Calm   5mph /  8km/h 97% 0.01in /  0.25mm 0 W/m2
00:24 63.6 °F /  17.6 °C 62.7 °F /  17.1 °C 30.04in /  1017.2hPa ENE 0.1mph /  0.2km/h 5mph /  8km/h 97% 0.01in /  0.25mm 0 W/m2
00:29 63.6 °F /  17.6 °C 62.7 °F /  17.1 °C 30.04in /  1017.2hPa Calm   5mph /  8km/h 97% 0.01in /  0.25mm 0 W/m2
00:34 63.6 °F /  17.6 °C 62.7 °F /  17.1 °C 30.04in /  1017.2hPa Calm   5mph /  8km/h 97% 0.01in /  0.25mm 0 W/m2
00:35 63.6 °F /  17.6 °C 62.7 °F /  17.1 °C 30.04in /  1017.2hPa Calm   2mph /  3.2km/h 97% 0.00in /  0mm 0 W/m2
01:00 63.2 °F /  17.3 °C 62.3 °F /  16.8 °C 30.03in /  1016.8hPa Calm   4mph /  6.4km/h 97% 0.00in /  0mm 0 W/m2
01:30 62.9 °F /  17.2 °C 62 °F /  16.7 °C 30.03in /  1016.8hPa Calm   9mph /  14.5km/h 97% 0.00in /  0mm 0 W/m2
02:00 62.6 °F /  17 °C 61.7 °F /  16.5 °C 30.02in /  1016.5hPa Calm   7mph /  11.3km/h 97% 0.00in /  0mm 0 W/m2
02:30 62.4 °F /  16.9 °C 61.5 °F /  16.4 °C 30.01in /  1016.1hPa Calm   9mph /  14.5km/h 97% 0.00in /  0mm 0 W/m2
03:00 62.2 °F /  16.8 °C 61.3 °F /  16.3 °C 30.00in /  1015.8hPa Calm   7mph /  11.3km/h 97% 0.00in /  0mm 0 W/m2
03:30 62.1 °F /  16.7 °C 61.2 °F /  16.2 °C 30.00in /  1015.8hPa Calm   7mph /  11.3km/h 97% 0.00in /  0mm 0 W/m2
04:04 62 °F /  16.7 °C 61.1 °F /  16.2 °C 30.00in /  1015.8hPa Calm     97% 0.00in /  0mm 0 W/m2
04:09 62 °F /  16.7 °C 61.1 °F /  16.2 °C 30.00in /  1015.8hPa NNW 0.3mph /  0.5km/h 6mph /  9.7km/h 97% 0.00in /  0mm 0 W/m2
04:14 62 °F /  16.7 °C 61.1 °F /  16.2 °C 30.00in /  1015.8hPa Calm   6mph /  9.7km/h 97% 0.00in /  0mm 0 W/m2
04:19 61.9 °F /  16.6 °C 61 °F /  16.1 °C 30.00in /  1015.8hPa Calm   6mph /  9.7km/h 97% 0.00in /  0mm 0 W/m2
04:24 61.9 °F /  16.6 °C 61 °F /  16.1 °C 30.00in /  1015.8hPa Calm   6mph /  9.7km/h 97% 0.00in /  0mm 0 W/m2
04:29 61.9 °F /  16.6 °C 61 °F /  16.1 °C 30.00in /  1015.8hPa Calm   6mph /  9.7km/h 97% 0.00in /  0mm 0 W/m2
04:34 61.9 °F /  16.6 °C 61 °F /  16.1 °C 30.00in /  1015.8hPa Calm   6mph /  9.7km/h 97% 0.00in /  0mm 0 W/m2
04:39 61.9 °F /  16.6 °C 61 °F /  16.1 °C 30.00in /  1015.8hPa NNW 0.2mph /  0.3km/h 4mph /  6.4km/h 97% 0.00in /  0mm 0 W/m2
04:44 62 °F /  16.7 °C 61.1 °F /  16.2 °C 30.00in /  1015.8hPa NNW 0.1mph /  0.2km/h 4mph /  6.4km/h 97% 0.00in /  0mm 0 W/m2
04:49 62 °F /  16.7 °C 61.1 °F /  16.2 °C 30.00in /  1015.8hPa Calm   4mph /  6.4km/h 97% 0.00in /  0mm 0 W/m2
04:54 62 °F /  16.7 °C 61.1 °F /  16.2 °C 30.00in /  1015.8hPa Calm   4mph /  6.4km/h 97% 0.00in /  0mm 0 W/m2
04:59 62 °F /  16.7 °C 61.1 °F /  16.2 °C 30.00in /  1015.8hPa Calm   4mph /  6.4km/h 97% 0.00in /  0mm 0 W/m2
05:04 62 °F /  16.7 °C 61.1 °F /  16.2 °C 30.00in /  1015.8hPa NNW 0.1mph /  0.2km/h 4mph /  6.4km/h 97% 0.00in /  0mm 0 W/m2
05:09 62 °F /  16.7 °C 61.1 °F /  16.2 °C 30.00in /  1015.8hPa Calm   2mph /  3.2km/h 97% 0.00in /  0mm 0 W/m2
05:14 62 °F /  16.7 °C 61.1 °F /  16.2 °C 30.00in /  1015.8hPa Calm   4mph /  6.4km/h 97% 0.00in /  0mm 0 W/m2
05:19 62 °F /  16.7 °C 61.1 °F /  16.2 °C 30.00in /  1015.8hPa Calm   4mph /  6.4km/h 97% 0.00in /  0mm 0 W/m2
05:24 62 °F /  16.7 °C 61.1 °F /  16.2 °C 30.01in /  1016.1hPa Calm   4mph /  6.4km/h 97% 0.00in /  0mm 0 W/m2
05:29 62 °F /  16.7 °C 61.1 °F /  16.2 °C 30.01in /  1016.1hPa Calm   4mph /  6.4km/h 97% 0.00in /  0mm 0 W/m2
05:34 62 °F /  16.7 °C 61.1 °F /  16.2 °C 30.02in /  1016.5hPa Calm   4mph /  6.4km/h 97% 0.00in /  0mm 0 W/m2
05:39 62 °F /  16.7 °C 61.1 °F /  16.2 °C 30.02in /  1016.5hPa Calm   1mph /  1.6km/h 97% 0.00in /  0mm 0 W/m2
05:44 62 °F /  16.7 °C 61.1 °F /  16.2 °C 30.02in /  1016.5hPa Calm   1mph /  1.6km/h 97% 0.00in /  0mm 0 W/m2
05:49 61.9 °F /  16.6 °C 61 °F /  16.1 °C 30.02in /  1016.5hPa Calm   1mph /  1.6km/h 97% 0.00in /  0mm 0 W/m2
05:54 61.9 °F /  16.6 °C 61 °F /  16.1 °C 30.02in /  1016.5hPa NNW 0.2mph /  0.3km/h 3mph /  4.8km/h 97% 0.00in /  0mm 0 W/m2
05:59 61.9 °F /  16.6 °C 61 °F /  16.1 °C 30.02in /  1016.5hPa Calm   3mph /  4.8km/h 97% 0.00in /  0mm 0 W/m2
06:04 61.9 °F /  16.6 °C 61 °F /  16.1 °C 30.02in /  1016.5hPa Calm   3mph /  4.8km/h 97% 0.00in /  0mm 0 W/m2
06:09 61.9 °F /  16.6 °C 61 °F /  16.1 °C 30.02in /  1016.5hPa Calm   1mph /  1.6km/h 97% 0.00in /  0mm 0 W/m2
06:14 61.8 °F /  16.6 °C 61 °F /  16.1 °C 30.02in /  1016.5hPa Calm   1mph /  1.6km/h 97% 0.00in /  0mm 0 W/m2
06:19 61.8 °F /  16.6 °C 60.9 °F /  16.1 °C 30.02in /  1016.5hPa Calm   1mph /  1.6km/h 97% 0.00in /  0mm 0 W/m2
06:24 61.8 °F /  16.6 °C 60.9 °F /  16.1 °C 30.02in /  1016.5hPa Calm   1mph /  1.6km/h 97% 0.00in /  0mm 0 W/m2
06:29 61.8 °F /  16.6 °C 60.9 °F /  16.1 °C 30.02in /  1016.5hPa Calm   1mph /  1.6km/h 97% 0.00in /  0mm 0 W/m2
06:34 61.8 °F /  16.6 °C 60.9 °F /  16.1 °C 30.02in /  1016.5hPa Calm   1mph /  1.6km/h 97% 0.00in /  0mm 0 W/m2
06:39 61.8 °F /  16.6 °C 60.9 °F /  16.1 °C 30.02in /  1016.5hPa Calm   1mph /  1.6km/h 97% 0.00in /  0mm 0 W/m2
06:44 61.7 °F /  16.5 °C 60.9 °F /  16.1 °C 30.02in /  1016.5hPa Calm   1mph /  1.6km/h 97% 0.00in /  0mm 7 W/m2
06:49 61.7 °F /  16.5 °C 60.8 °F /  16 °C 30.02in /  1016.5hPa Calm   1mph /  1.6km/h 97% 0.00in /  0mm 9 W/m2
06:54 61.7 °F /  16.5 °C 60.8 °F /  16 °C 30.03in /  1016.8hPa Calm   1mph /  1.6km/h 97% 0.00in /  0mm 9 W/m2
06:59 61.7 °F /  16.5 °C 60.8 °F /  16 °C 30.03in /  1016.8hPa Calm   1mph /  1.6km/h 97% 0.00in /  0mm 12 W/m2
07:04 61.7 °F /  16.5 °C 60.8 °F /  16 °C 30.03in /  1016.8hPa Calm   1mph /  1.6km/h 97% 0.00in /  0mm 18 W/m2
07:09 61.8 °F /  16.6 °C 60.9 °F /  16.1 °C 30.03in /  1016.8hPa NNE 0.2mph /  0.3km/h 3mph /  4.8km/h 97% 0.00in /  0mm 26 W/m2
07:14 61.7 °F /  16.5 °C 60.9 °F /  16.1 °C 30.03in /  1016.8hPa Calm   3mph /  4.8km/h 97% 0.00in /  0mm 28 W/m2
07:19 61.7 °F /  16.5 °C 60.9 °F /  16.1 °C 30.03in /  1016.8hPa NNE 0.1mph /  0.2km/h 3mph /  4.8km/h 97% 0.00in /  0mm 26 W/m2
07:24 61.7 °F /  16.5 °C 60.8 °F /  16 °C 30.03in /  1016.8hPa NW 0.5mph /  0.8km/h 7mph /  11.3km/h 97% 0.00in /  0mm 30 W/m2
07:29 61.7 °F /  16.5 °C 60.9 °F /  16.1 °C 30.03in /  1016.8hPa NNE 0.2mph /  0.3km/h 7mph /  11.3km/h 97% 0.00in /  0mm 30 W/m2
07:34 61.7 °F /  16.5 °C 60.8 °F /  16 °C 30.03in /  1016.8hPa ENE 0.4mph /  0.6km/h 7mph /  11.3km/h 97% 0.00in /  0mm 35 W/m2
07:39 61.7 °F /  16.5 °C 60.8 °F /  16 °C 30.03in /  1016.8hPa North 0.1mph /  0.2km/h 5mph /  8km/h 97% 0.00in /  0mm 40 W/m2
07:44 61.7 °F /  16.5 °C 60.8 °F /  16 °C 30.02in /  1016.5hPa NNW 0.1mph /  0.2km/h 5mph /  8km/h 97% 0.00in /  0mm 44 W/m2
07:49 61.7 °F /  16.5 °C 60.8 °F /  16 °C 30.02in /  1016.5hPa Calm   5mph /  8km/h 97% 0.00in /  0mm 56 W/m2
07:54 61.7 °F /  16.5 °C 60.9 °F /  16.1 °C 30.02in /  1016.5hPa Calm   5mph /  8km/h 97% 0.00in /  0mm 72 W/m2
07:59 61.8 °F /  16.6 °C 60.9 °F /  16.1 °C 30.02in /  1016.5hPa Calm   5mph /  8km/h 97% 0.00in /  0mm 70 W/m2
08:04 61.9 °F /  16.6 °C 61 °F /  16.1 °C 30.01in /  1016.1hPa North 1.3mph /  2.1km/h 4mph /  6.4km/h 97% 0.00in /  0mm 77 W/m2
08:09 61.9 °F /  16.6 °C 61 °F /  16.1 °C 30.02in /  1016.5hPa NNE 0.2mph /  0.3km/h 4mph /  6.4km/h 97% 0.00in /  0mm 84 W/m2
08:14 61.8 °F /  16.6 °C 61 °F /  16.1 °C 30.02in /  1016.5hPa Calm   4mph /  6.4km/h 97% 0.00in /  0mm 111 W/m2
08:19 62 °F /  16.7 °C 61.1 °F /  16.2 °C 30.02in /  1016.5hPa ENE 0.2mph /  0.3km/h 6mph /  9.7km/h 97% 0.00in /  0mm 132 W/m2
08:24 62.1 °F /  16.7 °C 61.2 °F /  16.2 °C 30.02in /  1016.5hPa ENE 0.2mph /  0.3km/h 6mph /  9.7km/h 97% 0.00in /  0mm 130 W/m2
08:29 62.2 °F /  16.8 °C 61.3 °F /  16.3 °C 30.02in /  1016.5hPa ENE 0.1mph /  0.2km/h 6mph /  9.7km/h 97% 0.00in /  0mm 132 W/m2
08:34 62.3 °F /  16.8 °C 61.4 °F /  16.3 °C 30.02in /  1016.5hPa Calm   6mph /  9.7km/h 97% 0.00in /  0mm 141 W/m2
08:39 62.4 °F /  16.9 °C 61.5 °F /  16.4 °C 30.02in /  1016.5hPa NNE 1.3mph /  2.1km/h 10mph /  16.1km/h 97% 0.00in /  0mm 118 W/m2
08:44 62.4 °F /  16.9 °C 61.5 °F /  16.4 °C 30.02in /  1016.5hPa ENE 0.5mph /  0.8km/h 10mph /  16.1km/h 97% 0.00in /  0mm 118 W/m2
08:49 62.4 °F /  16.9 °C 61.5 °F /  16.4 °C 30.02in /  1016.5hPa NE 0.6mph /  1km/h 10mph /  16.1km/h 97% 0.00in /  0mm 90 W/m2
08:54 62.4 °F /  16.9 °C 61.5 °F /  16.4 °C 30.02in /  1016.5hPa NE 0.7mph /  1.1km/h 10mph /  16.1km/h 97% 0.00in /  0mm 93 W/m2
08:59 62.5 °F /  16.9 °C 61.6 °F /  16.4 °C 30.02in /  1016.5hPa ENE 1.5mph /  2.4km/h 10mph /  16.1km/h 97% 0.00in /  0mm 120 W/m2
09:04 62.5 °F /  16.9 °C 61.6 °F /  16.4 °C 30.02in /  1016.5hPa ENE 1.3mph /  2.1km/h 10mph /  16.1km/h 97% 0.00in /  0mm 141 W/m2
09:09 62.5 °F /  16.9 °C 61.6 °F /  16.4 °C 30.02in /  1016.5hPa East 1.2mph /  1.9km/h 7mph /  11.3km/h 97% 0.00in /  0mm 127 W/m2
09:14 62.6 °F /  17 °C 61.6 °F /  16.4 °C 30.02in /  1016.5hPa ENE 2.2mph /  3.5km/h 9mph /  14.5km/h 96.6% 0.00in /  0mm 130 W/m2
09:19 62.8 °F /  17.1 °C 61.6 °F /  16.4 °C 30.02in /  1016.5hPa ENE 1.1mph /  1.8km/h 9mph /  14.5km/h 96% 0.00in /  0mm 172 W/m2
09:24 63 °F /  17.2 °C 61.8 °F /  16.6 °C 30.02in /  1016.5hPa NE 1.6mph /  2.6km/h 9mph /  14.5km/h 96% 0.00in /  0mm 172 W/m2
09:29 63.1 °F /  17.3 °C 61.9 °F /  16.6 °C 30.02in /  1016.5hPa ENE 0.7mph /  1.1km/h 9mph /  14.5km/h 96% 0.00in /  0mm 120 W/m2
09:34 63.3 °F /  17.4 °C 61.9 °F /  16.6 °C 30.02in /  1016.5hPa Calm   9mph /  14.5km/h 95.2% 0.00in /  0mm 88 W/m2
09:39 63.4 °F /  17.4 °C 61.9 °F /  16.6 °C 30.02in /  1016.5hPa East 0.2mph /  0.3km/h 6mph /  9.7km/h 95% 0.00in /  0mm 88 W/m2
09:44 63.5 °F /  17.5 °C 62 °F /  16.7 °C 30.02in /  1016.5hPa ENE 0.7mph /  1.1km/h 6mph /  9.7km/h 94.9% 0.00in /  0mm 90 W/m2
09:49 63.5 °F /  17.5 °C 61.8 °F /  16.6 °C 30.02in /  1016.5hPa NE 0.7mph /  1.1km/h 6mph /  9.7km/h 94% 0.00in /  0mm 105 W/m2
09:54 63.6 °F /  17.6 °C 61.8 °F /  16.6 °C 30.02in /  1016.5hPa ENE 1.4mph /  2.3km/h 9mph /  14.5km/h 93.8% 0.00in /  0mm 125 W/m2
09:59 63.6 °F /  17.6 °C 61.6 °F /  16.4 °C 30.02in /  1016.5hPa NE 0.7mph /  1.1km/h 9mph /  14.5km/h 93% 0.00in /  0mm 130 W/m2
10:04 63.8 °F /  17.7 °C 61.7 °F /  16.5 °C 30.03in /  1016.8hPa NE 2.7mph /  4.3km/h 10mph /  16.1km/h 93% 0.00in /  0mm 135 W/m2
10:09 63.9 °F /  17.7 °C 61.8 °F /  16.6 °C 30.02in /  1016.5hPa ENE 0.8mph /  1.3km/h 10mph /  16.1km/h 93% 0.00in /  0mm 190 W/m2
10:14 64.1 °F /  17.8 °C 61.9 °F /  16.6 °C 30.02in /  1016.5hPa NE 0.4mph /  0.6km/h 10mph /  16.1km/h 92.8% 0.00in /  0mm 204 W/m2
10:19 64.3 °F /  17.9 °C 61.9 °F /  16.6 °C 30.02in /  1016.5hPa ENE 0.3mph /  0.5km/h 10mph /  16.1km/h 92% 0.00in /  0mm 197 W/m2
10:24 64.6 °F /  18.1 °C 62.2 °F /  16.8 °C 30.02in /  1016.5hPa ENE 1.4mph /  2.3km/h 10mph /  16.1km/h 92% 0.00in /  0mm 232 W/m2
10:29 64.8 °F /  18.2 °C 62.1 °F /  16.7 °C 30.01in /  1016.1hPa East 1.1mph /  1.8km/h 10mph /  16.1km/h 90.8% 0.00in /  0mm 232 W/m2
10:34 65 °F /  18.3 °C 62.1 °F /  16.7 °C 30.02in /  1016.5hPa NE 0.3mph /  0.5km/h 10mph /  16.1km/h 90.2% 0.00in /  0mm 181 W/m2
10:39 65.3 °F /  18.5 °C 62.3 °F /  16.8 °C 30.02in /  1016.5hPa WNW 0.8mph /  1.3km/h 9mph /  14.5km/h 90% 0.00in /  0mm 202 W/m2
10:44 65.4 °F /  18.6 °C 62.2 °F /  16.8 °C 30.02in /  1016.5hPa East 0.2mph /  0.3km/h 9mph /  14.5km/h 89.4% 0.00in /  0mm 251 W/m2
10:49 65.6 °F /  18.7 °C 62.2 °F /  16.8 °C 30.02in /  1016.5hPa NE 1mph /  1.6km/h 10mph /  16.1km/h 88.8% 0.00in /  0mm 301 W/m2
10:54 65.9 °F /  18.8 °C 62.4 °F /  16.9 °C 30.02in /  1016.5hPa NE 0.5mph /  0.8km/h 10mph /  16.1km/h 88.4% 0.00in /  0mm 311 W/m2
10:59 66.1 °F /  18.9 °C 62.3 °F /  16.8 °C 30.02in /  1016.5hPa Calm   10mph /  16.1km/h 87.5% 0.00in /  0mm 285 W/m2
11:04 66.4 °F /  19.1 °C 62.5 °F /  16.9 °C 30.02in /  1016.5hPa Calm   10mph /  16.1km/h 87.4% 0.00in /  0mm 330 W/m2
11:09 66.7 °F /  19.3 °C 62.9 °F /  17.2 °C 30.01in /  1016.1hPa Calm   1mph /  1.6km/h 87.4% 0.00in /  0mm 406 W/m2
11:14 67.2 °F /  19.6 °C 63.3 °F /  17.4 °C 30.01in /  1016.1hPa NE 1.1mph /  1.8km/h 7mph /  11.3km/h 87.2% 0.00in /  0mm 373 W/m2
11:19 67.4 °F /  19.7 °C 62.6 °F /  17 °C 30.01in /  1016.1hPa ENE 3.6mph /  5.8km/h 10mph /  16.1km/h 84.7% 0.00in /  0mm 299 W/m2
11:24 67.6 °F /  19.8 °C 62.6 °F /  17 °C 30.01in /  1016.1hPa NE 0.8mph /  1.3km/h 10mph /  16.1km/h 84% 0.00in /  0mm 227 W/m2
11:29 67.7 °F /  19.8 °C 62.5 °F /  16.9 °C 30.01in /  1016.1hPa ENE 0.9mph /  1.4km/h 10mph /  16.1km/h 83.6% 0.00in /  0mm 216 W/m2
11:34 67.8 °F /  19.9 °C 62.8 °F /  17.1 °C 30.01in /  1016.1hPa NNE 0.2mph /  0.3km/h 10mph /  16.1km/h 83.8% 0.00in /  0mm 274 W/m2
11:39 68 °F /  20 °C 63 °F /  17.2 °C 30.01in /  1016.1hPa Calm   3mph /  4.8km/h 83.9% 0.00in /  0mm 332 W/m2
11:44 68.2 °F /  20.1 °C 62.8 °F /  17.1 °C 30.01in /  1016.1hPa NE 0.7mph /  1.1km/h 5mph /  8km/h 83% 0.00in /  0mm 299 W/m2
11:49 68.2 °F /  20.1 °C 62.4 °F /  16.9 °C 30.01in /  1016.1hPa ENE 0.4mph /  0.6km/h 5mph /  8km/h 81.9% 0.00in /  0mm 244 W/m2
11:54 68.1 °F /  20.1 °C 62.6 °F /  17 °C 30.01in /  1016.1hPa Calm   5mph /  8km/h 82.3% 0.00in /  0mm 352 W/m2
11:59 68.2 °F /  20.1 °C 62.8 °F /  17.1 °C 30.01in /  1016.1hPa ENE 0.4mph /  0.6km/h 5mph /  8km/h 82.6% 0.00in /  0mm 406 W/m2
12:00 68.3 °F /  20.2 °C 62.9 °F /  17.2 °C 30.01in /  1016.1hPa Calm   5mph /  8km/h 83% 0.00in /  0mm 348 W/m2
12:09 68.6 °F /  20.3 °C 62.4 °F /  16.9 °C 30.01in /  1016.1hPa ENE 1.8mph /  2.9km/h 7mph /  11.3km/h 80.4% 0.00in /  0mm 415 W/m2
12:14 68.9 °F /  20.5 °C 63 °F /  17.2 °C 30.00in /  1015.8hPa North 0.1mph /  0.2km/h 7mph /  11.3km/h 81.5% 0.00in /  0mm 436 W/m2
12:19 69.4 °F /  20.8 °C 63.4 °F /  17.4 °C 30.00in /  1015.8hPa NNW 0.4mph /  0.6km/h 7mph /  11.3km/h 81.2% 0.00in /  0mm 436 W/m2
12:24 69.7 °F /  20.9 °C 62.9 °F /  17.2 °C 30.00in /  1015.8hPa ENE 0.7mph /  1.1km/h 9mph /  14.5km/h 79% 0.00in /  0mm 413 W/m2
12:29 69.8 °F /  21 °C 62.9 °F /  17.2 °C 30.00in /  1015.8hPa ENE 0.5mph /  0.8km/h 9mph /  14.5km/h 78.8% 0.00in /  0mm 413 W/m2
12:34 69.9 °F /  21.1 °C 63.1 °F /  17.3 °C 30.00in /  1015.8hPa North 0.6mph /  1km/h 10mph /  16.1km/h 79% 0.00in /  0mm 397 W/m2
12:39 70.1 °F /  21.2 °C 62.9 °F /  17.2 °C 30.00in /  1015.8hPa ENE 0.7mph /  1.1km/h 10mph /  16.1km/h 78.1% 0.00in /  0mm 343 W/m2
12:44 70.1 °F /  21.2 °C 62.9 °F /  17.2 °C 30.00in /  1015.8hPa NW 0.2mph /  0.3km/h 10mph /  16.1km/h 78% 0.00in /  0mm 265 W/m2
12:49 70 °F /  21.1 °C 62.9 °F /  17.2 °C 30.00in /  1015.8hPa Calm   10mph /  16.1km/h 78.3% 0.00in /  0mm 246 W/m2
12:54 70 °F /  21.1 °C 63 °F /  17.2 °C 30.00in /  1015.8hPa Calm   10mph /  16.1km/h 78.4% 0.00in /  0mm 244 W/m2
12:59 70 °F /  21.1 °C 63 °F /  17.2 °C 30.00in /  1015.8hPa NW 0.3mph /  0.5km/h 10mph /  16.1km/h 78.4% 0.00in /  0mm 246 W/m2
13:04 70.1 °F /  21.2 °C 63.1 °F /  17.3 °C 30.00in /  1015.8hPa NE 0.3mph /  0.5km/h 10mph /  16.1km/h 78.5% 0.00in /  0mm 241 W/m2
13:09 70 °F /  21.1 °C 62.7 °F /  17.1 °C 29.99in /  1015.5hPa NE 0.7mph /  1.1km/h 5mph /  8km/h 77.5% 0.00in /  0mm 258 W/m2
13:14 70.1 °F /  21.2 °C 62.9 °F /  17.2 °C 29.99in /  1015.5hPa Calm   5mph /  8km/h 77.8% 0.00in /  0mm 248 W/m2
13:19 70.2 °F /  21.2 °C 63 °F /  17.2 °C 29.99in /  1015.5hPa Calm   5mph /  8km/h 78% 0.00in /  0mm 225 W/m2
13:24 70.2 °F /  21.2 °C 63 °F /  17.2 °C 29.99in /  1015.5hPa NE 0.4mph /  0.6km/h 5mph /  8km/h 77.9% 0.00in /  0mm 179 W/m2
13:29 70.2 °F /  21.2 °C 62.8 °F /  17.1 °C 29.99in /  1015.5hPa ENE 0.4mph /  0.6km/h 5mph /  8km/h 77.3% 0.00in /  0mm 236 W/m2
13:34 70.1 °F /  21.2 °C 62.3 °F /  16.8 °C 29.99in /  1015.5hPa ENE 0.4mph /  0.6km/h 5mph /  8km/h 76.3% 0.00in /  0mm 250 W/m2
13:39 70.1 °F /  21.2 °C 63 °F /  17.2 °C 29.99in /  1015.5hPa NNW 0.1mph /  0.2km/h 4mph /  6.4km/h 78.2% 0.00in /  0mm 260 W/m2
13:44 70.3 °F /  21.3 °C 63 °F /  17.2 °C 29.99in /  1015.5hPa ENE 0.6mph /  1km/h 7mph /  11.3km/h 77.8% 0.00in /  0mm 251 W/m2
13:49 70.4 °F /  21.3 °C 63.2 °F /  17.3 °C 29.99in /  1015.5hPa Calm   7mph /  11.3km/h 78.1% 0.00in /  0mm 221 W/m2
13:54 70.6 °F /  21.4 °C 63.4 °F /  17.4 °C 29.99in /  1015.5hPa NE 0.3mph /  0.5km/h 7mph /  11.3km/h 78% 0.00in /  0mm 123 W/m2
13:59 70.6 °F /  21.4 °C 62.8 °F /  17.1 °C 29.99in /  1015.5hPa NE 1mph /  1.6km/h 7mph /  11.3km/h 76.3% 0.00in /  0mm 120 W/m2
14:04 70.4 °F /  21.3 °C 62.7 °F /  17.1 °C 29.99in /  1015.5hPa NE 0.3mph /  0.5km/h 7mph /  11.3km/h 76.5% 0.00in /  0mm 186 W/m2
14:09 70.3 °F /  21.3 °C 62.8 °F /  17.1 °C 29.99in /  1015.5hPa NE 0.5mph /  0.8km/h 5mph /  8km/h 77% 0.00in /  0mm 244 W/m2
14:14 70.3 °F /  21.3 °C 62.7 °F /  17.1 °C 29.98in /  1015.1hPa Calm   5mph /  8km/h 76.7% 0.00in /  0mm 258 W/m2
14:19 70.5 °F /  21.4 °C 62.7 °F /  17.1 °C 29.98in /  1015.1hPa NE 0.3mph /  0.5km/h 5mph /  8km/h 76.6% 0.00in /  0mm 236 W/m2
14:24 70.6 °F /  21.4 °C 62.8 °F /  17.1 °C 29.98in /  1015.1hPa Calm   5mph /  8km/h 76.3% 0.00in /  0mm 251 W/m2
14:29 70.8 °F /  21.6 °C 63.1 °F /  17.3 °C 29.98in /  1015.1hPa ENE 0.7mph /  1.1km/h 6mph /  9.7km/h 76.7% 0.00in /  0mm 246 W/m2
14:34 71 °F /  21.7 °C 63.3 °F /  17.4 °C 29.98in /  1015.1hPa NE 0.6mph /  1km/h 6mph /  9.7km/h 76.8% 0.00in /  0mm 162 W/m2
15:00 70.4 °F /  21.3 °C 62.5 °F /  16.9 °C 29.97in /  1014.8hPa Calm   5mph /  8km/h 76% 0.00in /  0mm 89 W/m2
15:30 71.2 °F /  21.8 °C 62.5 °F /  16.9 °C 29.96in /  1014.4hPa Calm   4mph /  6.4km/h 74% 0.00in /  0mm 205 W/m2
16:04 71.2 °F /  21.8 °C 62.5 °F /  16.9 °C 29.96in /  1014.4hPa Calm   4mph /  6.4km/h 74% 0.00in /  0mm 205 W/m2
16:09 70.7 °F /  21.5 °C 63.3 °F /  17.4 °C 29.95in /  1014.1hPa Calm     77.4% 0.00in /  0mm 162 W/m2
16:14 70.7 °F /  21.5 °C 63.5 °F /  17.5 °C 29.95in /  1014.1hPa Calm   1mph /  1.6km/h 77.9% 0.00in /  0mm 125 W/m2
16:19 70.7 °F /  21.5 °C 62.9 °F /  17.2 °C 29.95in /  1014.1hPa Calm   1mph /  1.6km/h 76.4% 0.00in /  0mm 165 W/m2
16:24 70.7 °F /  21.5 °C 62.9 °F /  17.2 °C 29.95in /  1014.1hPa Calm   1mph /  1.6km/h 76.3% 0.00in /  0mm 186 W/m2
16:29 70.9 °F /  21.6 °C 63 °F /  17.2 °C 29.95in /  1014.1hPa NE 0.5mph /  0.8km/h 5mph /  8km/h 76.2% 0.00in /  0mm 209 W/m2
16:34 71 °F /  21.7 °C 63 °F /  17.2 °C 29.95in /  1014.1hPa NE 0.3mph /  0.5km/h 5mph /  8km/h 75.8% 0.00in /  0mm 209 W/m2
16:39 71.1 °F /  21.7 °C 62.9 °F /  17.2 °C 29.94in /  1013.8hPa Calm   4mph /  6.4km/h 75.2% 0.00in /  0mm 174 W/m2
16:44 71.2 °F /  21.8 °C 62.9 °F /  17.2 °C 29.94in /  1013.8hPa NE 0.2mph /  0.3km/h 4mph /  6.4km/h 75% 0.00in /  0mm 105 W/m2
16:49 71.2 °F /  21.8 °C 62.6 °F /  17 °C 29.95in /  1014.1hPa NE 0.3mph /  0.5km/h 4mph /  6.4km/h 74.3% 0.00in /  0mm 83 W/m2
16:54 71.1 °F /  21.7 °C 62.7 °F /  17.1 °C 29.95in /  1014.1hPa Calm   4mph /  6.4km/h 75% 0.00in /  0mm 74 W/m2
16:59 70.9 °F /  21.6 °C 62.7 °F /  17.1 °C 29.95in /  1014.1hPa NE 0.3mph /  0.5km/h 4mph /  6.4km/h 75.1% 0.00in /  0mm 76 W/m2
17:04 70.8 °F /  21.6 °C 62.8 °F /  17.1 °C 29.95in /  1014.1hPa NE 0.3mph /  0.5km/h 4mph /  6.4km/h 75.7% 0.00in /  0mm 100 W/m2
17:09 70.8 °F /  21.6 °C 62.9 °F /  17.2 °C 29.95in /  1014.1hPa Calm   4mph /  6.4km/h 76.2% 0.00in /  0mm 121 W/m2
17:14 70.7 °F /  21.5 °C 62.8 °F /  17.1 °C 29.95in /  1014.1hPa ENE 1.2mph /  1.9km/h 5mph /  8km/h 76.2% 0.00in /  0mm 125 W/m2
17:19 70.7 °F /  21.5 °C 62.8 °F /  17.1 °C 29.95in /  1014.1hPa ENE 0.3mph /  0.5km/h 5mph /  8km/h 76% 0.00in /  0mm 116 W/m2
17:24 70.6 °F /  21.4 °C 62.5 °F /  16.9 °C 29.95in /  1014.1hPa ENE 0.6mph /  1km/h 5mph /  8km/h 75.4% 0.00in /  0mm 81 W/m2
17:29 70.6 °F /  21.4 °C 62.7 °F /  17.1 °C 29.95in /  1014.1hPa Calm   5mph /  8km/h 76% 0.00in /  0mm 77 W/m2
17:34 70.6 °F /  21.4 °C 62.7 °F /  17.1 °C 29.94in /  1013.8hPa ENE 0.5mph /  0.8km/h 6mph /  9.7km/h 76.3% 0.00in /  0mm 70 W/m2
17:39 70.5 °F /  21.4 °C 62.6 °F /  17 °C 29.94in /  1013.8hPa Calm   6mph /  9.7km/h 76% 0.00in /  0mm 56 W/m2
17:44 70.4 °F /  21.3 °C 62.5 °F /  16.9 °C 29.94in /  1013.8hPa ENE 0.7mph /  1.1km/h 6mph /  9.7km/h 76% 0.00in /  0mm 54 W/m2
17:49 70.3 °F /  21.3 °C 62.4 °F /  16.9 °C 29.94in /  1013.8hPa Calm   6mph /  9.7km/h 76% 0.00in /  0mm 69 W/m2
17:54 70.2 °F /  21.2 °C 62.5 °F /  16.9 °C 29.94in /  1013.8hPa ENE 0.1mph /  0.2km/h 6mph /  9.7km/h 76.7% 0.00in /  0mm 69 W/m2
17:59 70.1 °F /  21.2 °C 62.2 °F /  16.8 °C 29.94in /  1013.8hPa Calm   6mph /  9.7km/h 76% 0.00in /  0mm 63 W/m2
18:04 70.1 °F /  21.2 °C 62.2 °F /  16.8 °C 29.94in /  1013.8hPa ENE 0.1mph /  0.2km/h 6mph /  9.7km/h 76% 0.00in /  0mm 54 W/m2
18:09 70.1 °F /  21.2 °C 62.3 °F /  16.8 °C 29.94in /  1013.8hPa Calm   4mph /  6.4km/h 76.4% 0.00in /  0mm 49 W/m2
18:14 70.1 °F /  21.2 °C 62.6 °F /  17 °C 29.95in /  1014.1hPa Calm   4mph /  6.4km/h 77% 0.00in /  0mm 37 W/m2
18:19 70.1 °F /  21.2 °C 62.5 °F /  16.9 °C 29.95in /  1014.1hPa Calm   4mph /  6.4km/h 77% 0.00in /  0mm 28 W/m2
18:24 70 °F /  21.1 °C 62.5 °F /  16.9 °C 29.95in /  1014.1hPa Calm   4mph /  6.4km/h 77% 0.00in /  0mm 30 W/m2
18:29 69.9 °F /  21.1 °C 62.4 °F /  16.9 °C 29.94in /  1013.8hPa Calm   4mph /  6.4km/h 77% 0.00in /  0mm 26 W/m2
18:34 69.9 °F /  21.1 °C 62.4 °F /  16.9 °C 29.94in /  1013.8hPa ENE 0.1mph /  0.2km/h 4mph /  6.4km/h 77% 0.00in /  0mm 23 W/m2
18:39 69.8 °F /  21 °C 62.4 °F /  16.9 °C 29.95in /  1014.1hPa Calm   3mph /  4.8km/h 77.3% 0.00in /  0mm 19 W/m2
18:44 69.7 °F /  20.9 °C 62.3 °F /  16.8 °C 29.95in /  1014.1hPa Calm   3mph /  4.8km/h 77.2% 0.00in /  0mm 18 W/m2
18:49 69.7 °F /  20.9 °C 62.2 °F /  16.8 °C 29.95in /  1014.1hPa Calm   3mph /  4.8km/h 77.1% 0.00in /  0mm 11 W/m2
18:54 69.6 °F /  20.9 °C 62.3 °F /  16.8 °C 29.95in /  1014.1hPa Calm   3mph /  4.8km/h 77.6% 0.00in /  0mm 5 W/m2
18:59 69.5 °F /  20.8 °C 62.3 °F /  16.8 °C 29.95in /  1014.1hPa Calm   3mph /  4.8km/h 78% 0.00in /  0mm 5 W/m2
19:04 69.4 °F /  20.8 °C 62.2 °F /  16.8 °C 29.94in /  1013.8hPa ENE 0.2mph /  0.3km/h 5mph /  8km/h 78% 0.00in /  0mm 0 W/m2
19:09 69.2 °F /  20.7 °C 62 °F /  16.7 °C 29.95in /  1014.1hPa Calm   5mph /  8km/h 77.8% 0.00in /  0mm 0 W/m2
19:14 69.2 °F /  20.7 °C 62 °F /  16.7 °C 29.94in /  1013.8hPa Calm   5mph /  8km/h 78% 0.00in /  0mm 0 W/m2
19:19 69.1 °F /  20.6 °C 62 °F /  16.7 °C 29.94in /  1013.8hPa Calm   5mph /  8km/h 78% 0.00in /  0mm 0 W/m2
19:23 69 °F /  20.6 °C 61.9 °F /  16.6 °C 29.94in /  1013.8hPa Calm   5mph /  8km/h 78% 0.00in /  0mm 0 W/m2
Hartford County Weather
Compliments of Weather Underground - 2 mb